SWA324 CYYZ-KSLC
Flight info
| Callsign | SWA324 |
|---|---|
| Flight time | N/A |
| Altitude | 32000 |
| Route | GOPUP4 SLLAP DCT BAE DCT ALO DCT OBH DCT GLL DCT EKR/N0459F340 J199 HELPR JAZZZ1 |
| Aircraft | B38M/M-SDE1FGHILORVWXY/HB1 |
Departure
| Time | 2026-05-05 23:59 |
|---|---|
| Airport | Toronto Pearson International Airport (CYYZ) |
Arrival
| Time | N/A |
|---|---|
| Airport | Salt Lake City International Airport (KSLC) |
| Time | Latitude | Longitude | Altitude | Speed | Heading |
|---|---|---|---|---|---|
| 2026-05-05 23:38 | 43.67593 | -79.61167 | 564 ft | 0 kts | 7° |
| 2026-05-05 23:41 | 43.67579 | -79.61169 | 571 ft | 4 kts | 6° |
| 2026-05-05 23:41 | 43.67552 | -79.61173 | 569 ft | 4 kts | 5° |
| 2026-05-05 23:42 | 43.67525 | -79.61176 | 567 ft | 4 kts | 1° |
| 2026-05-05 23:42 | 43.67499 | -79.61174 | 573 ft | 3 kts | 349° |
| 2026-05-05 23:42 | 43.67490 | -79.61172 | 569 ft | 3 kts | 322° |
| 2026-05-05 23:42 | 43.67480 | -79.61161 | 570 ft | 2 kts | 302° |
| 2026-05-05 23:43 | 43.67476 | -79.61147 | 569 ft | 2 kts | 274° |
| 2026-05-05 23:43 | 43.67477 | -79.61131 | 569 ft | 2 kts | 262° |
| 2026-05-05 23:43 | 43.67479 | -79.61116 | 567 ft | 2 kts | 258° |
| 2026-05-05 23:43 | 43.67480 | -79.61111 | 566 ft | 0 kts | 257° |
| 2026-05-05 23:48 | 43.67479 | -79.61111 | 566 ft | 0 kts | 257° |
| 2026-05-05 23:49 | 43.67478 | -79.61121 | 567 ft | 2 kts | 257° |
| 2026-05-05 23:49 | 43.67477 | -79.61147 | 569 ft | 4 kts | 273° |
| 2026-05-05 23:49 | 43.67479 | -79.61205 | 565 ft | 8 kts | 273° |
| 2026-05-05 23:49 | 43.67444 | -79.61279 | 567 ft | 12 kts | 204° |
| 2026-05-05 23:50 | 43.67368 | -79.61336 | 570 ft | 8 kts | 241° |
| 2026-05-05 23:50 | 43.67381 | -79.61392 | 566 ft | 7 kts | 314° |
| 2026-05-05 23:50 | 43.67425 | -79.61454 | 567 ft | 11 kts | 316° |
| 2026-05-05 23:50 | 43.67488 | -79.61538 | 568 ft | 15 kts | 316° |
| 2026-05-05 23:51 | 43.67559 | -79.61630 | 565 ft | 16 kts | 316° |
| 2026-05-05 23:51 | 43.67648 | -79.61747 | 565 ft | 20 kts | 316° |
| 2026-05-05 23:51 | 43.67752 | -79.61885 | 565 ft | 19 kts | 316° |
| 2026-05-05 23:51 | 43.67856 | -79.62019 | 565 ft | 23 kts | 317° |
| 2026-05-05 23:52 | 43.67999 | -79.62135 | 565 ft | 25 kts | 316° |
| 2026-05-05 23:52 | 43.68114 | -79.62286 | 564 ft | 20 kts | 316° |
| 2026-05-05 23:52 | 43.68219 | -79.62420 | 564 ft | 21 kts | 321° |
| 2026-05-05 23:52 | 43.68328 | -79.62551 | 565 ft | 21 kts | 316° |
| 2026-05-05 23:53 | 43.68432 | -79.62689 | 571 ft | 21 kts | 316° |
| 2026-05-05 23:53 | 43.68541 | -79.62832 | 564 ft | 22 kts | 317° |
| 2026-05-05 23:53 | 43.68653 | -79.62976 | 564 ft | 22 kts | 316° |
| 2026-05-05 23:53 | 43.68765 | -79.63122 | 571 ft | 22 kts | 316° |
| 2026-05-05 23:54 | 43.68877 | -79.63270 | 565 ft | 22 kts | 317° |
| 2026-05-05 23:54 | 43.68981 | -79.63405 | 566 ft | 18 kts | 316° |
| 2026-05-05 23:54 | 43.69065 | -79.63516 | 570 ft | 16 kts | 316° |
| 2026-05-05 23:54 | 43.69131 | -79.63511 | 570 ft | 7 kts | 46° |
| 2026-05-05 23:55 | 43.69165 | -79.63461 | 568 ft | 8 kts | 46° |
| 2026-05-05 23:55 | 43.69218 | -79.63425 | 572 ft | 10 kts | 8° |
| 2026-05-05 23:55 | 43.69291 | -79.63419 | 570 ft | 11 kts | 2° |
| 2026-05-05 23:55 | 43.69332 | -79.63418 | 568 ft | 0 kts | 357° |
| 2026-05-05 23:57 | 43.69336 | -79.63419 | 567 ft | 2 kts | 354° |
| 2026-05-05 23:57 | 43.69368 | -79.63436 | 567 ft | 9 kts | 327° |
| 2026-05-05 23:57 | 43.69394 | -79.63535 | 566 ft | 11 kts | 248° |
| 2026-05-05 23:57 | 43.69381 | -79.63556 | 568 ft | 6 kts | 229° |
| 2026-05-05 23:58 | 43.69303 | -79.63680 | 571 ft | 40 kts | 229° |
| 2026-05-05 23:58 | 43.68947 | -79.64194 | 572 ft | 106 kts | 226° |
| 2026-05-05 23:58 | 43.68300 | -79.65131 | 573 ft | 161 kts | 226° |
| 2026-05-05 23:58 | 43.67452 | -79.66378 | 832 ft | 187 kts | 232° |
| 2026-05-05 23:59 | 43.66617 | -79.67679 | 1795 ft | 175 kts | 232° |
| 2026-05-05 23:59 | 43.65904 | -79.69037 | 2563 ft | 176 kts | 236° |
| 2026-05-05 23:59 | 43.65183 | -79.70463 | 3155 ft | 184 kts | 237° |
| 2026-05-05 23:59 | 43.64457 | -79.71898 | 3932 ft | 181 kts | 238° |
| 2026-05-06 00:00 | 43.63729 | -79.73339 | 4590 ft | 184 kts | 239° |
| 2026-05-06 00:00 | 43.62994 | -79.74791 | 4955 ft | 185 kts | 239° |
| 2026-05-06 00:00 | 43.62274 | -79.76215 | 4999 ft | 182 kts | 239° |
| 2026-05-06 00:00 | 43.61704 | -79.77794 | 5063 ft | 193 kts | 260° |
| 2026-05-06 00:01 | 43.61762 | -79.79702 | 5454 ft | 209 kts | 287° |
| 2026-05-06 00:01 | 43.62366 | -79.81618 | 5942 ft | 225 kts | 288° |
| 2026-05-06 00:01 | 43.62831 | -79.83685 | 6694 ft | 224 kts | 284° |
| 2026-05-06 00:01 | 43.63282 | -79.85727 | 7532 ft | 223 kts | 283° |
| 2026-05-06 00:02 | 43.63741 | -79.87778 | 8364 ft | 223 kts | 281° |
| 2026-05-06 00:02 | 43.64205 | -79.89826 | 9192 ft | 225 kts | 280° |
| 2026-05-06 00:02 | 43.64675 | -79.91889 | 9949 ft | 226 kts | 279° |
| 2026-05-06 00:02 | 43.65159 | -79.94009 | 10455 ft | 238 kts | 280° |
| 2026-05-06 00:03 | 43.65667 | -79.96238 | 10789 ft | 255 kts | 280° |
| 2026-05-06 00:03 | 43.66218 | -79.98665 | 11081 ft | 274 kts | 281° |
| 2026-05-06 00:03 | 43.66807 | -80.01251 | 11361 ft | 292 kts | 281° |
| 2026-05-06 00:03 | 43.67433 | -80.03999 | 11634 ft | 309 kts | 282° |
| 2026-05-06 00:04 | 43.68058 | -80.06738 | 11934 ft | 322 kts | 282° |
| 2026-05-06 00:04 | 43.68697 | -80.09537 | 12285 ft | 331 kts | 282° |
| 2026-05-06 00:04 | 43.69419 | -80.12679 | 13084 ft | 331 kts | 283° |
| 2026-05-06 00:04 | 43.70109 | -80.15683 | 13701 ft | 334 kts | 283° |
| 2026-05-06 00:05 | 43.71527 | -80.21872 | 14814 ft | 342 kts | 282° |
| 2026-05-06 00:05 | 43.72248 | -80.25020 | 15373 ft | 345 kts | 282° |
| 2026-05-06 00:05 | 43.72970 | -80.28203 | 15941 ft | 348 kts | 279° |
| 2026-05-06 00:06 | 43.73258 | -80.31485 | 16438 ft | 343 kts | 265° |
| 2026-05-06 00:06 | 43.73276 | -80.34813 | 16937 ft | 348 kts | 266° |
| 2026-05-06 00:06 | 43.73307 | -80.38169 | 17489 ft | 352 kts | 266° |
| 2026-05-06 00:06 | 43.73325 | -80.41570 | 18033 ft | 355 kts | 265° |
| 2026-05-06 00:07 | 43.73336 | -80.45010 | 18503 ft | 358 kts | 265° |
| 2026-05-06 00:07 | 43.73343 | -80.48425 | 18992 ft | 360 kts | 265° |
| 2026-05-06 00:07 | 43.73347 | -80.51891 | 19482 ft | 362 kts | 265° |
| 2026-05-06 00:07 | 43.73350 | -80.55385 | 19956 ft | 364 kts | 265° |
| 2026-05-06 00:08 | 43.73352 | -80.58896 | 20429 ft | 366 kts | 265° |
| 2026-05-06 00:08 | 43.73352 | -80.61241 | 20744 ft | 368 kts | 265° |
| 2026-05-06 00:08 | 43.73352 | -80.64794 | 21208 ft | 370 kts | 265° |
| 2026-05-06 00:08 | 43.73351 | -80.68360 | 21648 ft | 372 kts | 265° |
| 2026-05-06 00:09 | 43.73348 | -80.71953 | 22104 ft | 374 kts | 265° |
| 2026-05-06 00:09 | 43.73345 | -80.75572 | 22539 ft | 377 kts | 265° |
| 2026-05-06 00:09 | 43.73340 | -80.79199 | 22968 ft | 379 kts | 265° |
| 2026-05-06 00:09 | 43.73334 | -80.82861 | 23385 ft | 382 kts | 265° |
| 2026-05-06 00:10 | 43.73327 | -80.86551 | 23735 ft | 384 kts | 266° |
| 2026-05-06 00:10 | 43.73319 | -80.90254 | 24097 ft | 386 kts | 266° |
| 2026-05-06 00:10 | 43.73309 | -80.93969 | 24452 ft | 388 kts | 266° |
| 2026-05-06 00:10 | 43.73298 | -80.97721 | 24800 ft | 390 kts | 266° |
| 2026-05-06 00:11 | 43.73286 | -81.01435 | 25133 ft | 392 kts | 266° |
| 2026-05-06 00:11 | 43.73273 | -81.05218 | 25477 ft | 394 kts | 266° |
| 2026-05-06 00:11 | 43.73258 | -81.09009 | 25810 ft | 396 kts | 266° |
| 2026-05-06 00:11 | 43.73242 | -81.12827 | 26137 ft | 398 kts | 266° |
| 2026-05-06 00:12 | 43.73224 | -81.16675 | 26468 ft | 400 kts | 266° |
| 2026-05-06 00:12 | 43.73205 | -81.20527 | 26787 ft | 402 kts | 266° |
| 2026-05-06 00:12 | 43.73185 | -81.24405 | 27101 ft | 403 kts | 266° |
| 2026-05-06 00:12 | 43.73163 | -81.28269 | 27615 ft | 400 kts | 266° |
| 2026-05-06 00:13 | 43.73141 | -81.32112 | 28054 ft | 399 kts | 266° |
| 2026-05-06 00:13 | 43.73117 | -81.35924 | 28525 ft | 397 kts | 266° |
| 2026-05-06 00:13 | 43.73092 | -81.39754 | 28983 ft | 395 kts | 266° |
| 2026-05-06 00:13 | 43.73066 | -81.43494 | 29420 ft | 394 kts | 266° |
| 2026-05-06 00:14 | 43.73039 | -81.47278 | 29844 ft | 393 kts | 266° |
| 2026-05-06 00:14 | 43.73012 | -81.51053 | 30227 ft | 391 kts | 266° |
| 2026-05-06 00:14 | 43.72983 | -81.54803 | 30653 ft | 388 kts | 266° |
| 2026-05-06 00:14 | 43.72948 | -81.58513 | 31078 ft | 385 kts | 266° |
| 2026-05-06 00:15 | 43.72914 | -81.62195 | 31500 ft | 382 kts | 266° |
| 2026-05-06 00:15 | 43.72879 | -81.65856 | 31921 ft | 379 kts | 266° |
| 2026-05-06 00:15 | 43.72843 | -81.69482 | 32329 ft | 376 kts | 266° |
| 2026-05-06 00:15 | 43.72807 | -81.73082 | 32728 ft | 373 kts | 266° |
| 2026-05-06 00:16 | 43.72769 | -81.76666 | 33112 ft | 371 kts | 266° |
| 2026-05-06 00:16 | 43.72731 | -81.80207 | 33491 ft | 368 kts | 266° |
| 2026-05-06 00:16 | 43.72692 | -81.83741 | 33847 ft | 366 kts | 266° |
| 2026-05-06 00:16 | 43.72652 | -81.87254 | 34129 ft | 364 kts | 266° |
| 2026-05-06 00:17 | 43.72611 | -81.90756 | 34373 ft | 364 kts | 266° |
| 2026-05-06 00:17 | 43.72569 | -81.94248 | 34617 ft | 363 kts | 266° |
| 2026-05-06 00:17 | 43.72526 | -81.97738 | 34849 ft | 362 kts | 267° |
| 2026-05-06 00:17 | 43.72483 | -82.01221 | 35082 ft | 362 kts | 267° |
| 2026-05-06 00:18 | 43.72438 | -82.04697 | 35313 ft | 361 kts | 267° |
| 2026-05-06 00:18 | 43.72392 | -82.08170 | 35547 ft | 360 kts | 267° |
| 2026-05-06 00:18 | 43.72346 | -82.11629 | 35754 ft | 360 kts | 268° |
| 2026-05-06 00:19 | 43.71965 | -82.18504 | 35849 ft | 358 kts | 264° |
| 2026-05-06 00:19 | 43.71496 | -82.25308 | 35840 ft | 358 kts | 264° |
| 2026-05-06 00:20 | 43.71033 | -82.32158 | 35835 ft | 358 kts | 264° |
| 2026-05-06 00:20 | 43.70568 | -82.39015 | 35831 ft | 358 kts | 264° |
| 2026-05-06 00:21 | 43.70099 | -82.45860 | 35829 ft | 358 kts | 264° |
| 2026-05-06 00:21 | 43.69627 | -82.52709 | 35822 ft | 358 kts | 264° |
| 2026-05-06 00:22 | 43.69150 | -82.59548 | 35819 ft | 357 kts | 264° |
| 2026-05-06 00:22 | 43.68671 | -82.66381 | 35813 ft | 357 kts | 264° |
| 2026-05-06 00:23 | 43.68190 | -82.73168 | 35808 ft | 357 kts | 264° |
| 2026-05-06 00:23 | 43.67703 | -82.79994 | 35808 ft | 357 kts | 264° |
| 2026-05-06 00:24 | 43.67048 | -82.86791 | 35805 ft | 357 kts | 263° |
| 2026-05-06 00:24 | 43.66382 | -82.93586 | 35807 ft | 357 kts | 263° |
| 2026-05-06 00:25 | 43.65717 | -83.00369 | 35806 ft | 357 kts | 263° |
| 2026-05-06 00:25 | 43.65048 | -83.07162 | 35812 ft | 356 kts | 263° |
| 2026-05-06 00:26 | 43.64375 | -83.13946 | 35804 ft | 356 kts | 263° |
| 2026-05-06 00:26 | 43.63699 | -83.20725 | 35809 ft | 356 kts | 263° |
| 2026-05-06 00:27 | 43.63023 | -83.27454 | 35809 ft | 356 kts | 263° |
| 2026-05-06 00:27 | 43.62340 | -83.34223 | 35820 ft | 356 kts | 263° |
| 2026-05-06 00:28 | 43.61653 | -83.40985 | 35823 ft | 355 kts | 263° |
| 2026-05-06 00:28 | 43.60961 | -83.47748 | 35810 ft | 355 kts | 263° |
| 2026-05-06 00:29 | 43.60267 | -83.54500 | 35821 ft | 355 kts | 263° |
| 2026-05-06 00:29 | 43.59628 | -83.60679 | 35811 ft | 355 kts | 263° |
| 2026-05-06 00:30 | 43.58932 | -83.67373 | 35816 ft | 354 kts | 263° |
| 2026-05-06 00:30 | 43.58227 | -83.74110 | 35819 ft | 354 kts | 263° |
| 2026-05-06 00:31 | 43.57518 | -83.80848 | 35824 ft | 354 kts | 263° |
| 2026-05-06 00:31 | 43.56807 | -83.87569 | 35819 ft | 354 kts | 263° |
| 2026-05-06 00:32 | 43.56092 | -83.94283 | 35826 ft | 354 kts | 263° |
| 2026-05-06 00:32 | 43.55378 | -84.00956 | 35818 ft | 353 kts | 263° |
| 2026-05-06 00:33 | 43.54657 | -84.07654 | 35820 ft | 353 kts | 263° |
| 2026-05-06 00:33 | 43.53932 | -84.14348 | 35830 ft | 353 kts | 263° |
| 2026-05-06 00:34 | 43.53204 | -84.21035 | 35827 ft | 353 kts | 263° |
| 2026-05-06 00:34 | 43.52472 | -84.27719 | 35832 ft | 353 kts | 263° |
| 2026-05-06 00:35 | 43.51735 | -84.34414 | 35835 ft | 352 kts | 263° |
| 2026-05-06 00:35 | 43.50996 | -84.41090 | 35841 ft | 352 kts | 263° |
| 2026-05-06 00:36 | 43.50259 | -84.47714 | 35843 ft | 352 kts | 263° |
| 2026-05-06 00:36 | 43.49512 | -84.54385 | 35853 ft | 352 kts | 263° |
| 2026-05-06 00:37 | 43.48763 | -84.61042 | 35837 ft | 352 kts | 262° |
| 2026-05-06 00:37 | 43.48010 | -84.67704 | 35838 ft | 352 kts | 262° |
| 2026-05-06 00:38 | 43.47255 | -84.74344 | 35845 ft | 351 kts | 262° |
| 2026-05-06 00:38 | 43.46501 | -84.80952 | 35841 ft | 351 kts | 262° |
| 2026-05-06 00:39 | 43.45735 | -84.87630 | 35839 ft | 351 kts | 262° |
| 2026-05-06 00:39 | 43.45012 | -84.94227 | 35842 ft | 350 kts | 264° |
| 2026-05-06 00:40 | 43.44462 | -85.00894 | 35849 ft | 350 kts | 264° |
| 2026-05-06 00:40 | 43.43895 | -85.07544 | 35848 ft | 350 kts | 264° |
| 2026-05-06 00:41 | 43.43322 | -85.14195 | 35860 ft | 350 kts | 264° |
| 2026-05-06 00:41 | 43.42745 | -85.20834 | 35861 ft | 350 kts | 264° |
| 2026-05-06 00:42 | 43.42165 | -85.27475 | 35856 ft | 349 kts | 264° |
| 2026-05-06 00:42 | 43.41581 | -85.34113 | 35862 ft | 349 kts | 264° |
| 2026-05-06 00:43 | 43.40994 | -85.40739 | 35868 ft | 349 kts | 264° |
| 2026-05-06 00:43 | 43.40406 | -85.47328 | 35862 ft | 349 kts | 264° |
| 2026-05-06 00:44 | 43.39812 | -85.53945 | 35862 ft | 348 kts | 264° |
| 2026-05-06 00:44 | 43.39214 | -85.60560 | 35867 ft | 348 kts | 264° |
| 2026-05-06 00:45 | 43.38614 | -85.67161 | 35869 ft | 348 kts | 264° |
| 2026-05-06 00:45 | 43.38009 | -85.73763 | 35873 ft | 348 kts | 264° |
| 2026-05-06 00:46 | 43.37402 | -85.80355 | 35874 ft | 348 kts | 264° |
| 2026-05-06 00:46 | 43.36793 | -85.86925 | 35869 ft | 348 kts | 264° |
| 2026-05-06 00:47 | 43.36177 | -85.93519 | 35866 ft | 348 kts | 264° |
| 2026-05-06 00:47 | 43.35558 | -86.00104 | 35871 ft | 347 kts | 264° |
| 2026-05-06 00:48 | 43.34936 | -86.06686 | 35869 ft | 347 kts | 264° |
| 2026-05-06 00:48 | 43.34310 | -86.13269 | 35878 ft | 347 kts | 264° |
| 2026-05-06 00:49 | 43.33681 | -86.19843 | 35885 ft | 347 kts | 264° |
| 2026-05-06 00:49 | 43.33048 | -86.26415 | 35885 ft | 347 kts | 264° |
| 2026-05-06 00:50 | 43.32416 | -86.32939 | 35885 ft | 347 kts | 263° |
| 2026-05-06 00:50 | 43.31777 | -86.39496 | 35890 ft | 347 kts | 263° |
| 2026-05-06 00:51 | 43.31133 | -86.46063 | 35889 ft | 346 kts | 263° |
| 2026-05-06 00:51 | 43.30486 | -86.52618 | 35890 ft | 346 kts | 263° |
| 2026-05-06 00:52 | 43.29836 | -86.59169 | 35902 ft | 346 kts | 263° |
| 2026-05-06 00:52 | 43.29182 | -86.65715 | 35897 ft | 346 kts | 263° |
| 2026-05-06 00:53 | 43.28525 | -86.72256 | 35899 ft | 346 kts | 263° |
| 2026-05-06 00:53 | 43.27864 | -86.78799 | 35904 ft | 346 kts | 263° |
| 2026-05-06 00:54 | 43.27204 | -86.85298 | 35901 ft | 346 kts | 263° |
| 2026-05-06 00:54 | 43.26536 | -86.91831 | 35912 ft | 346 kts | 263° |
| 2026-05-06 00:55 | 43.25977 | -86.97271 | 35898 ft | 346 kts | 263° |
| 2026-05-06 00:55 | 43.25302 | -87.03796 | 35895 ft | 345 kts | 263° |
| 2026-05-06 00:56 | 43.24624 | -87.10326 | 35895 ft | 345 kts | 263° |
| 2026-05-06 00:56 | 43.23942 | -87.16854 | 35901 ft | 345 kts | 263° |
| 2026-05-06 00:57 | 43.23257 | -87.23370 | 35892 ft | 345 kts | 263° |
| 2026-05-06 00:57 | 43.22569 | -87.29882 | 35893 ft | 345 kts | 263° |
| 2026-05-06 00:58 | 43.21878 | -87.36389 | 35886 ft | 344 kts | 263° |
| 2026-05-06 00:58 | 43.21188 | -87.42847 | 35885 ft | 344 kts | 263° |
| 2026-05-06 00:59 | 43.20490 | -87.49339 | 35888 ft | 344 kts | 263° |
| 2026-05-06 00:59 | 43.19789 | -87.55833 | 35883 ft | 344 kts | 263° |
| 2026-05-06 01:00 | 43.19084 | -87.62325 | 35880 ft | 344 kts | 263° |
| 2026-05-06 01:00 | 43.18376 | -87.68806 | 35880 ft | 344 kts | 263° |
| 2026-05-06 01:01 | 43.17664 | -87.75291 | 35886 ft | 344 kts | 263° |
| 2026-05-06 01:01 | 43.16949 | -87.81768 | 35880 ft | 344 kts | 263° |
| 2026-05-06 01:02 | 43.16235 | -87.88200 | 35889 ft | 343 kts | 262° |
| 2026-05-06 01:02 | 43.15513 | -87.94678 | 35886 ft | 344 kts | 262° |
| 2026-05-06 01:03 | 43.14789 | -88.01141 | 35882 ft | 343 kts | 262° |
| 2026-05-06 01:03 | 43.14062 | -88.07612 | 35884 ft | 343 kts | 262° |
| 2026-05-06 01:04 | 43.13331 | -88.14076 | 35890 ft | 344 kts | 262° |
| 2026-05-06 01:04 | 43.12596 | -88.20547 | 35894 ft | 344 kts | 262° |
| 2026-05-06 01:05 | 43.11857 | -88.27018 | 35883 ft | 344 kts | 262° |
| 2026-05-06 01:05 | 43.11091 | -88.33478 | 35891 ft | 344 kts | 262° |
| 2026-05-06 01:06 | 43.10332 | -88.39899 | 35879 ft | 344 kts | 262° |
| 2026-05-06 01:06 | 43.09567 | -88.46361 | 35880 ft | 344 kts | 262° |
| 2026-05-06 01:07 | 43.08798 | -88.52812 | 35892 ft | 344 kts | 262° |
| 2026-05-06 01:07 | 43.08025 | -88.59272 | 35882 ft | 344 kts | 262° |
| 2026-05-06 01:08 | 43.07249 | -88.65728 | 35883 ft | 343 kts | 262° |
| 2026-05-06 01:08 | 43.06471 | -88.72168 | 35881 ft | 343 kts | 262° |
| 2026-05-06 01:09 | 43.05693 | -88.78573 | 35883 ft | 343 kts | 262° |
| 2026-05-06 01:09 | 43.04906 | -88.85017 | 35888 ft | 343 kts | 262° |
| 2026-05-06 01:10 | 43.04116 | -88.91462 | 35896 ft | 344 kts | 262° |
| 2026-05-06 01:10 | 43.03323 | -88.97901 | 35894 ft | 344 kts | 262° |
| 2026-05-06 01:11 | 43.02525 | -89.04341 | 35887 ft | 343 kts | 261° |
| 2026-05-06 01:11 | 43.01724 | -89.10778 | 35892 ft | 343 kts | 261° |
| 2026-05-06 01:12 | 43.00920 | -89.17215 | 35893 ft | 343 kts | 261° |
| 2026-05-06 01:12 | 43.00117 | -89.23607 | 35900 ft | 343 kts | 261° |
| 2026-05-06 01:13 | 42.99305 | -89.30041 | 35885 ft | 343 kts | 261° |
| 2026-05-06 01:13 | 42.98491 | -89.36467 | 35883 ft | 343 kts | 261° |
| 2026-05-06 01:14 | 42.97262 | -89.46099 | 35897 ft | 343 kts | 261° |
| 2026-05-06 01:14 | 42.96439 | -89.52523 | 35890 ft | 343 kts | 261° |
| 2026-05-06 01:15 | 42.95612 | -89.58938 | 35899 ft | 343 kts | 261° |
| 2026-05-06 01:15 | 42.94782 | -89.65347 | 35888 ft | 343 kts | 261° |
| 2026-05-06 01:16 | 42.93949 | -89.71759 | 35897 ft | 343 kts | 261° |
| 2026-05-06 01:16 | 42.93111 | -89.78171 | 35889 ft | 343 kts | 261° |
| 2026-05-06 01:17 | 42.92269 | -89.84585 | 35902 ft | 343 kts | 261° |
| 2026-05-06 01:17 | 42.91429 | -89.90960 | 35898 ft | 344 kts | 261° |
| 2026-05-06 01:18 | 42.90579 | -89.97378 | 35892 ft | 344 kts | 261° |
| 2026-05-06 01:18 | 42.89725 | -90.03800 | 35889 ft | 344 kts | 261° |
| 2026-05-06 01:19 | 42.88866 | -90.10229 | 35893 ft | 344 kts | 261° |
| 2026-05-06 01:19 | 42.88005 | -90.16645 | 35902 ft | 344 kts | 261° |
| 2026-05-06 01:20 | 42.87141 | -90.23056 | 35899 ft | 344 kts | 261° |
| 2026-05-06 01:20 | 42.86278 | -90.29429 | 35901 ft | 344 kts | 260° |
| 2026-05-06 01:21 | 42.85405 | -90.35850 | 35900 ft | 344 kts | 260° |
| 2026-05-06 01:21 | 42.84529 | -90.42263 | 35903 ft | 344 kts | 260° |
| 2026-05-06 01:22 | 42.83650 | -90.48671 | 35905 ft | 344 kts | 260° |
| 2026-05-06 01:22 | 42.82767 | -90.55083 | 35912 ft | 345 kts | 260° |
| 2026-05-06 01:23 | 42.81878 | -90.61502 | 35906 ft | 345 kts | 260° |
| 2026-05-06 01:23 | 42.80986 | -90.67924 | 35911 ft | 345 kts | 260° |
| 2026-05-06 01:24 | 42.80093 | -90.74320 | 35910 ft | 346 kts | 260° |
| 2026-05-06 01:24 | 42.79191 | -90.80756 | 35910 ft | 346 kts | 260° |
| 2026-05-06 01:25 | 42.78285 | -90.87196 | 35912 ft | 346 kts | 260° |
| 2026-05-06 01:25 | 42.77373 | -90.93644 | 35921 ft | 347 kts | 260° |
| 2026-05-06 01:26 | 42.76457 | -91.00092 | 35923 ft | 347 kts | 259° |
| 2026-05-06 01:26 | 42.75539 | -91.06535 | 35923 ft | 347 kts | 259° |
| 2026-05-06 01:27 | 42.74616 | -91.12982 | 35920 ft | 347 kts | 259° |
| 2026-05-06 01:27 | 42.73690 | -91.19419 | 35914 ft | 347 kts | 259° |
| 2026-05-06 01:28 | 42.72767 | -91.25817 | 35919 ft | 347 kts | 259° |
| 2026-05-06 01:28 | 42.71834 | -91.32253 | 35915 ft | 347 kts | 259° |
| 2026-05-06 01:29 | 42.70896 | -91.38696 | 35916 ft | 347 kts | 259° |
| 2026-05-06 01:29 | 42.69953 | -91.45145 | 35921 ft | 348 kts | 259° |
| 2026-05-06 01:30 | 42.69007 | -91.51588 | 35916 ft | 348 kts | 259° |
| 2026-05-06 01:30 | 42.68057 | -91.58033 | 35920 ft | 348 kts | 259° |
| 2026-05-06 01:31 | 42.67101 | -91.64486 | 35934 ft | 348 kts | 259° |
| 2026-05-06 01:31 | 42.66142 | -91.70942 | 35932 ft | 348 kts | 259° |
| 2026-05-06 01:32 | 42.65186 | -91.77350 | 35938 ft | 348 kts | 259° |